createdAt,value
2022-11-12T00:01:29.845Z,11.00
2022-11-12T00:06:50.636Z,9.83
2022-11-12T00:12:11.585Z,9.20
2022-11-12T00:17:32.554Z,8.47
2022-11-12T00:22:53.586Z,8.50
2022-11-12T00:28:14.590Z,8.50
2022-11-12T00:33:38.832Z,10.33
2022-11-12T00:38:59.326Z,9.70
2022-11-12T00:44:20.722Z,8.63
2022-11-12T00:49:41.626Z,7.93
2022-11-12T00:55:02.616Z,8.40
2022-11-12T01:00:23.544Z,7.50
2022-11-12T01:05:44.591Z,7.50
2022-11-12T01:11:18.186Z,8.10
2022-11-12T01:16:40.476Z,8.33
2022-11-12T01:22:01.132Z,8.40
2022-11-12T01:27:22.180Z,7.90
2022-11-12T01:32:42.949Z,7.57
2022-11-12T01:38:03.861Z,7.33
2022-11-12T01:43:24.622Z,7.60
2022-11-12T01:48:55.803Z,6.73
2022-11-12T01:54:19.564Z,7.53
2022-11-12T01:59:47.953Z,7.23
2022-11-12T02:05:11.218Z,6.90
2022-11-12T02:10:32.163Z,7.30
2022-11-12T02:15:53.341Z,6.40
2022-11-12T02:21:14.241Z,6.77
2022-11-12T02:26:38.628Z,6.77
2022-11-12T02:31:59.414Z,7.07
2022-11-12T02:37:20.291Z,6.83
2022-11-12T02:42:41.287Z,6.90
2022-11-12T02:48:02.076Z,6.43
2022-11-12T02:53:22.935Z,6.70
2022-11-12T02:58:43.893Z,6.47
2022-11-12T03:04:04.949Z,6.87
2022-11-12T03:09:25.891Z,8.70
2022-11-12T03:14:46.826Z,7.40
2022-11-12T03:20:08.000Z,7.57
2022-11-12T03:25:29.780Z,7.00
2022-11-12T03:30:50.668Z,7.47
2022-11-12T03:36:12.112Z,6.90
2022-11-12T03:41:33.186Z,6.90
2022-11-12T03:46:54.022Z,6.60
2022-11-12T03:52:14.899Z,7.13
2022-11-12T03:57:36.010Z,7.03
2022-11-12T04:02:57.761Z,6.90
2022-11-12T04:08:36.324Z,6.83
2022-11-12T04:13:57.386Z,6.80
2022-11-12T04:19:36.854Z,6.93
2022-11-12T04:25:16.416Z,6.47
2022-11-12T04:30:37.295Z,6.53
2022-11-12T04:35:58.213Z,7.17
2022-11-12T04:41:37.662Z,6.43
2022-11-12T04:46:58.474Z,6.67
2022-11-12T04:52:19.338Z,6.47
2022-11-12T04:57:40.461Z,6.40
2022-11-12T05:03:01.495Z,6.87
2022-11-12T05:08:22.170Z,6.90
2022-11-12T05:13:43.049Z,6.77
2022-11-12T05:19:04.252Z,6.87
2022-11-12T05:24:41.046Z,6.30
2022-11-12T05:30:03.402Z,7.30
2022-11-12T05:35:24.643Z,6.53
2022-11-12T05:40:45.935Z,6.77
2022-11-12T05:46:06.910Z,6.47
2022-11-12T05:51:28.028Z,5.93
2022-11-12T05:56:51.044Z,6.77
2022-11-12T06:02:11.940Z,7.57
2022-11-12T06:07:33.118Z,8.43
2022-11-12T06:12:54.327Z,9.63
2022-11-12T06:18:15.088Z,9.73
2022-11-12T06:23:35.871Z,10.20
2022-11-12T06:28:57.099Z,8.90
2022-11-12T06:34:17.660Z,8.83
2022-11-12T06:39:38.693Z,10.37
2022-11-12T06:44:59.683Z,12.27
2022-11-12T06:50:20.544Z,8.57
2022-11-12T06:55:41.427Z,8.07
2022-11-12T07:01:14.052Z,9.13
2022-11-12T07:06:34.895Z,12.67
2022-11-12T07:11:55.847Z,9.20
2022-11-12T07:17:16.678Z,13.67
2022-11-12T07:22:39.604Z,10.80
2022-11-12T07:28:00.635Z,6.70
2022-11-12T07:33:21.648Z,6.97
2022-11-12T07:38:43.731Z,9.40
2022-11-12T07:44:04.791Z,6.57
2022-11-12T07:49:25.491Z,9.60
2022-11-12T07:54:46.393Z,18.07
2022-11-12T08:00:08.111Z,6.53
2022-11-12T08:05:28.653Z,6.30
2022-11-12T08:10:54.923Z,8.47
2022-11-12T08:16:16.149Z,7.30
2022-11-12T08:21:37.148Z,7.50
2022-11-12T08:26:58.046Z,9.07
2022-11-12T08:32:19.132Z,9.53
2022-11-12T08:37:40.061Z,9.00
2022-11-12T08:43:06.198Z,8.90
2022-11-12T08:48:28.444Z,10.27
2022-11-12T08:53:49.586Z,9.87
2022-11-12T08:59:10.485Z,22.13
2022-11-12T09:04:31.399Z,10.20
2022-11-12T09:09:52.479Z,11.63
2022-11-12T09:20:54.473Z,15.80
2022-11-12T09:26:15.451Z,18.90
2022-11-12T09:31:36.285Z,15.77
2022-11-12T09:36:57.095Z,37.23
2022-11-12T09:42:21.758Z,12.57
2022-11-12T09:47:47.070Z,15.93
2022-11-12T09:53:23.156Z,17.10
2022-11-12T09:58:43.813Z,19.43
2022-11-12T10:04:24.046Z,17.03
2022-11-12T10:10:16.890Z,19.17
2022-11-12T10:16:04.460Z,14.00
2022-11-12T10:21:43.554Z,19.57
2022-11-12T10:27:20.367Z,17.60
2022-11-12T10:32:45.261Z,26.50
2022-11-12T10:38:16.217Z,22.37
2022-11-12T10:43:37.014Z,16.17
2022-11-12T10:49:03.891Z,17.73
2022-11-12T10:54:29.543Z,15.43
2022-11-12T11:00:09.309Z,17.73
2022-11-12T11:05:46.882Z,16.30
2022-11-12T11:11:16.998Z,15.50
2022-11-12T11:16:50.262Z,17.37
2022-11-12T11:22:35.109Z,20.77
2022-11-12T11:28:23.209Z,27.00
2022-11-12T11:34:19.567Z,63.70
2022-11-12T11:39:57.654Z,32.40
2022-11-12T11:45:25.268Z,29.13
2022-11-12T11:51:14.303Z,17.53
2022-11-12T11:56:42.499Z,17.20
2022-11-12T12:02:22.201Z,14.10
2022-11-12T12:08:11.665Z,26.87
2022-11-12T12:13:50.950Z,21.50
2022-11-12T12:19:14.161Z,22.00
2022-11-12T12:25:05.734Z,17.57
2022-11-12T12:30:29.340Z,15.63
2022-11-12T12:35:59.689Z,17.33
2022-11-12T12:41:39.486Z,22.87
2022-11-12T12:47:02.581Z,21.07
2022-11-12T12:52:23.389Z,22.63
2022-11-12T12:57:44.854Z,14.57
2022-11-12T13:03:06.864Z,13.93
2022-11-12T13:08:28.268Z,21.07
2022-11-12T13:13:49.491Z,14.00
2022-11-12T13:19:10.211Z,17.50
2022-11-12T13:25:02.440Z,100.17
2022-11-12T13:30:26.357Z,18.83
2022-11-12T13:35:47.673Z,15.70
2022-11-12T13:41:16.888Z,24.67
2022-11-12T13:46:38.298Z,26.10
2022-11-12T13:52:00.827Z,18.17
2022-11-12T13:57:24.660Z,21.53
2022-11-12T14:02:59.211Z,19.93
2022-11-12T14:08:50.823Z,16.37
2022-11-12T14:14:18.290Z,32.70
2022-11-12T14:20:01.693Z,41.70
2022-11-12T14:25:26.052Z,29.33
2022-11-12T14:30:48.473Z,31.60
2022-11-12T14:36:19.074Z,25.67
2022-11-12T14:41:42.857Z,24.57
2022-11-12T14:47:04.410Z,21.87
2022-11-12T14:52:40.204Z,20.03
2022-11-12T14:58:02.429Z,26.60
2022-11-12T15:03:26.605Z,28.50
2022-11-12T15:08:57.915Z,37.37
2022-11-12T15:14:26.985Z,19.90
2022-11-12T15:19:47.665Z,17.30
2022-11-12T15:25:21.319Z,23.37
2022-11-12T15:30:42.184Z,52.90
2022-11-12T15:36:03.421Z,36.90
2022-11-12T15:41:30.252Z,33.10
2022-11-12T15:46:52.621Z,26.23
2022-11-12T15:52:14.121Z,57.70
2022-11-12T15:57:44.208Z,39.27
2022-11-12T16:03:15.267Z,25.43
2022-11-12T16:08:36.593Z,46.53
2022-11-12T16:13:57.614Z,33.87
2022-11-12T16:19:18.761Z,25.17
2022-11-12T16:24:40.417Z,21.80
2022-11-12T16:30:01.524Z,23.00
2022-11-12T16:35:23.235Z,30.00
2022-11-12T16:40:45.051Z,59.07
2022-11-12T16:46:14.695Z,27.97
2022-11-12T16:51:35.351Z,57.25
2022-11-12T16:56:56.683Z,24.13
2022-11-12T17:02:17.953Z,24.13
2022-11-12T17:07:39.117Z,27.70
2022-11-12T17:13:00.085Z,31.37
2022-11-12T17:18:21.155Z,42.57
2022-11-12T17:23:42.183Z,42.73
2022-11-12T17:29:07.835Z,34.93
2022-11-12T17:34:29.402Z,37.60
2022-11-12T17:39:50.501Z,34.73
2022-11-12T17:45:11.541Z,27.70
2022-11-12T17:50:32.525Z,41.10
2022-11-12T17:55:57.531Z,80.73
2022-11-12T18:01:27.454Z,34.30
2022-11-12T18:06:48.754Z,27.13
2022-11-12T18:12:09.778Z,29.07
2022-11-12T18:17:30.520Z,32.53
2022-11-12T18:22:56.169Z,30.13
2022-11-12T18:28:17.232Z,26.83
2022-11-12T18:33:39.035Z,132.10
2022-11-12T18:38:59.763Z,40.90
2022-11-12T18:44:25.733Z,75.17
2022-11-12T18:49:47.233Z,65.27
2022-11-12T18:55:09.023Z,39.33
2022-11-12T19:00:29.736Z,55.97
2022-11-12T19:05:58.454Z,32.07
2022-11-12T19:11:21.762Z,40.10
2022-11-12T19:16:44.640Z,52.03
2022-11-12T19:22:05.867Z,103.83
2022-11-12T19:27:26.744Z,48.93
2022-11-12T19:32:47.738Z,38.07
2022-11-12T19:38:08.610Z,32.97
2022-11-12T19:43:30.046Z,32.00
2022-11-12T19:48:51.784Z,39.73
2022-11-12T19:54:12.690Z,35.47
2022-11-12T19:59:33.805Z,40.43
2022-11-12T20:04:54.961Z,42.83
2022-11-12T20:10:16.772Z,31.57
2022-11-12T20:15:40.956Z,31.70
2022-11-12T20:21:04.958Z,29.70
2022-11-12T20:26:26.832Z,39.10
2022-11-12T20:31:47.744Z,32.07
2022-11-12T20:37:08.903Z,44.27
2022-11-12T20:42:29.902Z,40.10
2022-11-12T20:47:50.816Z,42.60
2022-11-12T20:53:12.789Z,41.00
2022-11-12T20:58:33.732Z,47.97
2022-11-12T21:04:05.525Z,35.23
2022-11-12T21:09:26.919Z,37.40
2022-11-12T21:14:50.626Z,42.17
2022-11-12T21:20:11.998Z,41.23
2022-11-12T21:25:37.719Z,40.87
2022-11-12T21:31:04.023Z,42.83
2022-11-12T21:36:28.019Z,43.00
2022-11-12T21:41:48.716Z,50.40
2022-11-12T21:47:09.682Z,48.13
2022-11-12T21:52:30.778Z,64.83
2022-11-12T21:57:52.042Z,57.73
2022-11-12T22:03:13.420Z,52.40
2022-11-12T22:08:34.674Z,59.90
2022-11-12T22:13:55.628Z,52.67
2022-11-12T22:19:17.092Z,56.23
2022-11-12T22:24:38.272Z,48.60
2022-11-12T22:29:59.503Z,56.43
2022-11-12T22:35:21.119Z,56.13
2022-11-12T22:40:42.580Z,52.57
2022-11-12T22:46:07.974Z,56.50
2022-11-12T22:51:31.051Z,51.53
2022-11-12T22:56:52.029Z,52.27
2022-11-12T23:02:13.084Z,50.53
2022-11-12T23:07:34.134Z,69.23
2022-11-12T23:12:55.979Z,51.50
2022-11-12T23:18:16.678Z,65.30
2022-11-12T23:23:38.464Z,52.33
2022-11-12T23:29:01.085Z,49.20
2022-11-12T23:34:21.976Z,38.33
2022-11-12T23:39:43.035Z,36.37
2022-11-12T23:45:04.565Z,45.83
2022-11-12T23:50:25.280Z,50.73
2022-11-12T23:55:46.430Z,52.30
